createdAt,value
2017-01-26T00:00:50.413Z,-0.63
2017-01-26T00:01:50.384Z,-0.67
2017-01-26T00:02:49.952Z,-0.65
2017-01-26T00:03:50.328Z,-0.62
2017-01-26T00:04:50.296Z,-0.65
2017-01-26T00:05:49.865Z,-0.52
2017-01-26T00:06:50.237Z,-0.56
2017-01-26T00:07:49.809Z,-0.5
2017-01-26T00:08:50.229Z,-0.55
2017-01-26T00:09:49.754Z,-0.55
2017-01-26T00:10:50.118Z,-0.59
2017-01-26T00:11:50.097Z,-0.55
2017-01-26T00:12:50.065Z,-0.58
2017-01-26T00:13:50.041Z,-0.58
2017-01-26T00:14:50.007Z,-0.42
2017-01-26T00:15:49.993Z,-0.52
2017-01-26T00:16:49.952Z,-0.42
2017-01-26T00:17:49.920Z,-0.53
2017-01-26T00:18:49.895Z,-0.56
2017-01-26T00:19:49.862Z,-0.52
2017-01-26T00:20:49.832Z,-0.47
2017-01-26T00:21:49.808Z,-0.49
2017-01-26T00:22:49.386Z,-0.56
2017-01-26T00:23:49.365Z,-0.49
2017-01-26T00:24:49.726Z,-0.5
2017-01-26T00:25:49.747Z,-0.56
2017-01-26T00:26:49.667Z,-0.47
2017-01-26T00:27:49.632Z,-0.5
2017-01-26T00:28:49.205Z,-0.44
2017-01-26T00:29:49.572Z,-0.55
2017-01-26T00:30:49.547Z,-0.55
2017-01-26T00:31:49.516Z,-0.52
2017-01-26T00:32:49.494Z,-0.47
2017-01-26T00:33:49.062Z,-0.45
2017-01-26T00:34:49.028Z,-0.44
2017-01-26T00:35:49.403Z,-0.45
2017-01-26T00:36:49.371Z,-0.41
2017-01-26T00:37:48.945Z,-0.53
2017-01-26T00:38:49.326Z,-0.52
2017-01-26T00:39:49.290Z,-0.45
2017-01-26T00:40:48.863Z,-0.42
2017-01-26T00:41:48.843Z,-0.42
2017-01-26T00:42:49.201Z,-0.44
2017-01-26T00:43:48.775Z,-0.56
2017-01-26T00:44:49.143Z,-0.56
2017-01-26T00:45:49.127Z,-0.52
2017-01-26T00:46:49.099Z,-0.49
2017-01-26T00:47:49.077Z,-0.55
2017-01-26T00:48:48.632Z,-0.6
2017-01-26T00:49:49.001Z,-0.67
2017-01-26T00:50:48.978Z,-0.67
2017-01-26T00:51:48.542Z,-0.71
2017-01-26T00:52:48.168Z,-0.71
2017-01-26T00:53:48.896Z,-0.68
2017-01-26T00:54:48.861Z,-0.71
2017-01-26T00:55:48.879Z,-0.68
2017-01-26T00:56:48.812Z,-0.73
2017-01-26T00:57:48.777Z,-0.71
2017-01-26T00:58:48.745Z,-0.7
2017-01-26T00:59:48.317Z,-0.74
2017-01-26T01:00:48.687Z,-0.77
2017-01-26T01:01:48.657Z,-0.71
2017-01-26T01:02:48.627Z,-0.85
2017-01-26T01:03:48.599Z,-0.77
2017-01-26T01:04:48.568Z,-0.77
2017-01-26T01:05:48.540Z,-0.76
2017-01-26T01:06:48.111Z,-0.81
2017-01-26T01:07:48.486Z,-0.81
2017-01-26T01:08:48.463Z,-0.85
2017-01-26T01:09:48.025Z,-0.9
2017-01-26T01:10:48.054Z,-0.86
2017-01-26T01:11:48.373Z,-0.89
2017-01-26T01:12:48.336Z,-0.97
2017-01-26T01:13:47.919Z,-1
2017-01-26T01:14:48.287Z,-1
2017-01-26T01:15:47.452Z,-0.97
2017-01-26T01:16:48.226Z,-1.07
2017-01-26T01:17:48.206Z,-1.07
2017-01-26T01:18:47.767Z,-1.08
2017-01-26T01:19:48.135Z,-1.02
2017-01-26T01:20:48.108Z,-1.1
2017-01-26T01:21:48.081Z,-1.13
2017-01-26T01:22:48.051Z,-1.1
2017-01-26T01:23:48.028Z,-1.17
2017-01-26T01:24:47.196Z,-1.17
2017-01-26T01:25:47.562Z,-1.13
2017-01-26T01:26:47.935Z,-1.13
2017-01-26T01:27:47.909Z,-1.15
2017-01-26T01:28:47.875Z,-1.11
2017-01-26T01:29:47.847Z,-1.21
2017-01-26T01:30:47.422Z,-1.15
2017-01-26T01:31:47.786Z,-1.13
2017-01-26T01:32:47.761Z,-1.21
2017-01-26T01:33:47.722Z,-1.31
2017-01-26T01:34:47.705Z,-1.33
2017-01-26T01:35:47.278Z,-1.31
2017-01-26T01:36:47.645Z,-1.31
2017-01-26T01:37:47.620Z,-1.29
2017-01-26T01:38:47.593Z,-1.28
2017-01-26T01:39:47.156Z,-1.29
2017-01-26T01:40:47.526Z,-1.31
2017-01-26T01:41:47.494Z,-1.29
2017-01-26T01:42:47.071Z,-1.32
2017-01-26T01:43:47.295Z,-1.41
2017-01-26T01:44:47.409Z,-1.43
2017-01-26T01:45:46.986Z,-1.43
2017-01-26T01:46:47.350Z,-1.36
2017-01-26T01:47:46.929Z,-1.36
2017-01-26T01:48:46.890Z,-1.32
2017-01-26T01:49:46.870Z,-1.31
2017-01-26T01:50:47.241Z,-1.35
2017-01-26T01:51:47.202Z,-1.33
2017-01-26T01:52:47.178Z,-1.39
2017-01-26T01:53:47.207Z,-1.36
2017-01-26T01:54:47.131Z,-1.44
2017-01-26T01:55:47.095Z,-1.33
2017-01-26T01:56:47.060Z,-1.44
2017-01-26T01:57:47.041Z,-1.49
2017-01-26T01:58:46.206Z,-1.39
2017-01-26T01:59:46.972Z,-1.46
2017-01-26T02:00:46.543Z,-1.43
2017-01-26T02:01:46.566Z,-1.44
2017-01-26T02:02:46.916Z,-1.44
2017-01-26T02:03:46.862Z,-1.56
2017-01-26T02:04:46.430Z,-1.46
2017-01-26T02:05:46.798Z,-1.46
2017-01-26T02:06:46.768Z,-1.46
2017-01-26T02:07:46.762Z,-1.53
2017-01-26T02:08:47.010Z,-1.56
2017-01-26T02:09:46.682Z,-1.61
2017-01-26T02:10:46.650Z,-1.54
2017-01-26T02:11:46.618Z,-1.61
2017-01-26T02:12:46.891Z,-1.53
2017-01-26T02:13:46.567Z,-1.62
2017-01-26T02:14:46.532Z,-1.61
2017-01-26T02:15:46.502Z,-1.57
2017-01-26T02:16:46.073Z,-1.61
2017-01-26T02:17:46.449Z,-1.59
2017-01-26T02:18:46.419Z,-1.61
2017-01-26T02:19:46.389Z,-1.61
2017-01-26T02:20:46.355Z,-1.62
2017-01-26T02:21:46.328Z,-1.67
2017-01-26T02:22:45.903Z,-1.75
2017-01-26T02:23:45.870Z,-1.64
2017-01-26T02:24:46.241Z,-1.7
2017-01-26T02:25:46.213Z,-1.75
2017-01-26T02:26:45.783Z,-1.71
2017-01-26T02:27:46.171Z,-1.74
2017-01-26T02:28:45.729Z,-1.72
2017-01-26T02:29:46.094Z,-1.74
2017-01-26T02:30:45.720Z,-1.74
2017-01-26T02:31:46.040Z,-1.82
2017-01-26T02:32:46.023Z,-1.75
2017-01-26T02:33:45.582Z,-1.8
2017-01-26T02:34:45.946Z,-1.78
2017-01-26T02:35:45.923Z,-1.78
2017-01-26T02:36:45.890Z,-1.78
2017-01-26T02:37:45.852Z,-1.72
2017-01-26T02:38:45.428Z,-1.67
2017-01-26T02:39:45.800Z,-1.71
2017-01-26T02:40:45.770Z,-1.74
2017-01-26T02:41:45.732Z,-1.8
2017-01-26T02:42:45.716Z,-1.67
2017-01-26T02:43:45.285Z,-1.74
2017-01-26T02:44:45.656Z,-1.65
2017-01-26T02:45:45.615Z,-1.68
2017-01-26T02:46:45.198Z,-1.82
2017-01-26T02:47:45.558Z,-1.8
2017-01-26T02:48:45.135Z,-1.83
2017-01-26T02:49:45.506Z,-1.85
2017-01-26T02:50:45.481Z,-1.93
2017-01-26T02:51:45.451Z,-1.98
2017-01-26T02:52:45.408Z,-1.96
2017-01-26T02:53:45.380Z,-1.98
2017-01-26T02:54:44.954Z,-1.9
2017-01-26T02:55:45.330Z,-2
2017-01-26T02:56:45.298Z,-1.93
2017-01-26T02:57:45.265Z,-1.96
2017-01-26T02:58:45.233Z,-1.98
2017-01-26T02:59:44.807Z,-2
2017-01-26T03:00:45.180Z,-2.11
2017-01-26T03:01:45.153Z,-2.06
2017-01-26T03:02:44.718Z,-2.07
2017-01-26T03:03:44.290Z,-2.08
2017-01-26T03:04:44.657Z,-2.08
2017-01-26T03:05:44.636Z,-2.08
2017-01-26T03:06:45.003Z,-2.03
2017-01-26T03:07:44.579Z,-2.07
2017-01-26T03:08:44.942Z,-2.01
2017-01-26T03:09:44.921Z,-2.11
2017-01-26T03:10:44.477Z,-2.04
2017-01-26T03:11:44.854Z,-2.04
2017-01-26T03:12:44.823Z,-2.03
2017-01-26T03:13:44.789Z,-2.1
2017-01-26T03:14:44.754Z,-2.06
2017-01-26T03:15:44.879Z,-1.96
2017-01-26T03:16:44.704Z,-1.93
2017-01-26T03:17:44.269Z,-1.8
2017-01-26T03:18:44.246Z,-1.68
2017-01-26T03:19:44.962Z,-1.54
2017-01-26T03:20:44.586Z,-1.59
2017-01-26T03:21:44.580Z,-1.47
2017-01-26T03:22:43.721Z,-1.49
2017-01-26T03:23:44.492Z,-1.5
2017-01-26T03:24:43.668Z,-1.51
2017-01-26T03:25:44.442Z,-1.44
2017-01-26T03:26:44.403Z,-1.43
2017-01-26T03:27:43.971Z,-1.31
2017-01-26T03:28:43.950Z,-1.23
2017-01-26T03:29:44.313Z,-1.25
2017-01-26T03:30:44.289Z,-1.07
2017-01-26T03:31:43.861Z,-1.17
2017-01-26T03:32:43.828Z,-1.14
2017-01-26T03:33:43.392Z,-1.11
2017-01-26T03:34:44.076Z,-1.11
2017-01-26T03:35:44.142Z,-1.11
2017-01-26T03:36:43.763Z,-1.13
2017-01-26T03:37:44.085Z,-1.18
2017-01-26T03:38:44.054Z,-1.29
2017-01-26T03:39:43.612Z,-1.28
2017-01-26T03:40:43.590Z,-1.32
2017-01-26T03:41:43.961Z,-1.31
2017-01-26T03:42:43.932Z,-1.41
2017-01-26T03:43:43.896Z,-1.26
2017-01-26T03:44:44.419Z,-1.28
2017-01-26T03:45:43.893Z,-1.17
2017-01-26T03:46:43.811Z,-1.15
2017-01-26T03:47:43.791Z,-1.32
2017-01-26T03:48:43.758Z,-1.28
2017-01-26T03:49:43.729Z,-1.29
2017-01-26T03:50:43.701Z,-1.41
2017-01-26T03:51:43.268Z,-1.32
2017-01-26T03:52:43.639Z,-1.43
2017-01-26T03:53:43.601Z,-1.39
2017-01-26T03:54:43.576Z,-1.53
2017-01-26T03:55:43.148Z,-1.46
2017-01-26T03:56:43.518Z,-1.54
2017-01-26T03:57:43.486Z,-1.59
2017-01-26T03:58:43.459Z,-1.7
2017-01-26T03:59:43.028Z,-1.68
2017-01-26T04:00:43.003Z,-1.65
2017-01-26T04:01:42.976Z,-1.75
2017-01-26T04:02:43.340Z,-1.82
2017-01-26T04:03:42.963Z,-1.82
2017-01-26T04:04:42.887Z,-1.78
2017-01-26T04:05:43.250Z,-1.83
2017-01-26T04:06:43.215Z,-1.86
2017-01-26T04:07:43.190Z,-1.86
2017-01-26T04:08:42.775Z,-1.85
2017-01-26T04:09:43.134Z,-1.96
2017-01-26T04:10:42.709Z,-1.88
2017-01-26T04:11:43.071Z,-2.03
2017-01-26T04:12:43.042Z,-1.89
2017-01-26T04:13:43.115Z,-1.95
2017-01-26T04:14:43.017Z,-1.95
2017-01-26T04:15:42.960Z,-1.95
2017-01-26T04:16:42.927Z,-1.98
2017-01-26T04:17:42.496Z,-1.92
2017-01-26T04:18:42.870Z,-1.88
2017-01-26T04:19:42.440Z,-1.93
2017-01-26T04:20:42.404Z,-2.01
2017-01-26T04:21:42.376Z,-1.98
2017-01-26T04:22:42.353Z,-2.03
2017-01-26T04:23:42.715Z,-2.13
2017-01-26T04:24:42.735Z,-2.16
2017-01-26T04:25:42.658Z,-2.08
2017-01-26T04:26:42.225Z,-2.13
2017-01-26T04:27:42.602Z,-2.07
2017-01-26T04:28:42.574Z,-2.11
2017-01-26T04:29:42.573Z,-2.07
2017-01-26T04:30:42.162Z,-2.14
2017-01-26T04:31:42.478Z,-2.08
2017-01-26T04:32:42.515Z,-2.13
2017-01-26T04:33:42.022Z,-2.16
2017-01-26T04:34:42.394Z,-2.13
2017-01-26T04:35:42.358Z,-2.06
2017-01-26T04:36:41.954Z,-2.16
2017-01-26T04:37:41.500Z,-2.11
2017-01-26T04:38:42.275Z,-2.14
2017-01-26T04:39:42.286Z,-2.11
2017-01-26T04:40:42.216Z,-2.13
2017-01-26T04:41:42.179Z,-2.16
2017-01-26T04:42:41.750Z,-2.25
2017-01-26T04:43:42.168Z,-2.26
2017-01-26T04:44:42.095Z,-2.22
2017-01-26T04:45:42.064Z,-2.24
2017-01-26T04:46:41.234Z,-2.18
2017-01-26T04:47:42.024Z,-2.18
2017-01-26T04:48:41.972Z,-2.22
2017-01-26T04:49:41.935Z,-2.18
2017-01-26T04:50:41.518Z,-2.21
2017-01-26T04:51:41.532Z,-2.21
2017-01-26T04:52:41.857Z,-2.18
2017-01-26T04:53:41.820Z,-2.21
2017-01-26T04:54:41.786Z,-2.25
2017-01-26T04:55:41.760Z,-2.26
2017-01-26T04:56:41.730Z,-2.18
2017-01-26T04:57:41.709Z,-2.22
2017-01-26T04:58:41.273Z,-2.28
2017-01-26T04:59:41.248Z,-2.18
2017-01-26T05:00:41.613Z,-2.25
2017-01-26T05:01:41.582Z,-2.24
2017-01-26T05:02:41.551Z,-2.25
2017-01-26T05:03:41.124Z,-2.29
2017-01-26T05:04:41.498Z,-2.24
2017-01-26T05:05:41.061Z,-2.29
2017-01-26T05:06:41.434Z,-2.22
2017-01-26T05:07:41.405Z,-2.24
2017-01-26T05:08:41.376Z,-2.19
2017-01-26T05:09:41.363Z,-2.29
2017-01-26T05:10:41.317Z,-2.37
2017-01-26T05:11:41.284Z,-2.32
2017-01-26T05:12:41.453Z,-2.22
2017-01-26T05:13:40.828Z,-2.29
2017-01-26T05:14:40.795Z,-2.26
2017-01-26T05:15:41.164Z,-2.22
2017-01-26T05:16:40.736Z,-2.44
2017-01-26T05:17:41.601Z,-2.32
2017-01-26T05:18:40.675Z,-2.28
2017-01-26T05:19:40.647Z,-2.28
2017-01-26T05:20:41.022Z,-2.26
2017-01-26T05:21:41.287Z,-2.4
2017-01-26T05:22:40.961Z,-2.35
2017-01-26T05:23:40.522Z,-2.33
2017-01-26T05:24:40.897Z,-2.35
2017-01-26T05:25:40.869Z,-2.29
2017-01-26T05:26:40.828Z,-2.28
2017-01-26T05:27:40.810Z,-2.32
2017-01-26T05:28:40.772Z,-2.38
2017-01-26T05:29:40.343Z,-2.33
2017-01-26T05:30:40.712Z,-2.35
2017-01-26T05:31:40.682Z,-2.48
2017-01-26T05:32:40.260Z,-2.38
2017-01-26T05:33:40.628Z,-2.46
2017-01-26T05:34:40.196Z,-2.35
2017-01-26T05:35:40.571Z,-2.37
2017-01-26T05:36:40.528Z,-2.37
2017-01-26T05:37:40.510Z,-2.41
2017-01-26T05:38:40.479Z,-2.32
2017-01-26T05:39:40.445Z,-2.26
2017-01-26T05:40:40.422Z,-2.24
2017-01-26T05:41:40.383Z,-2.33
2017-01-26T05:42:40.359Z,-2.22
2017-01-26T05:43:40.320Z,-2.37
2017-01-26T05:44:40.299Z,-2.26
2017-01-26T05:45:40.276Z,-2.25
2017-01-26T05:46:40.239Z,-2.29
2017-01-26T05:47:39.812Z,-2.33
2017-01-26T05:48:40.181Z,-2.29
2017-01-26T05:49:40.149Z,-2.29
2017-01-26T05:50:39.314Z,-2.28
2017-01-26T05:51:39.683Z,-2.35
2017-01-26T05:52:40.052Z,-2.28
2017-01-26T05:53:39.632Z,-2.29
2017-01-26T05:54:39.199Z,-2.33
2017-01-26T05:55:39.964Z,-2.4
2017-01-26T05:56:39.935Z,-2.26
2017-01-26T05:57:39.510Z,-2.32
2017-01-26T05:58:39.526Z,-2.33
2017-01-26T05:59:39.850Z,-2.32
2017-01-26T06:00:39.814Z,-2.35
2017-01-26T06:01:39.391Z,-2.35
2017-01-26T06:02:39.753Z,-2.38
2017-01-26T06:03:39.320Z,-2.32
2017-01-26T06:04:39.295Z,-2.4
2017-01-26T06:05:39.670Z,-2.32
2017-01-26T06:06:39.233Z,-2.32
2017-01-26T06:07:39.629Z,-2.32
2017-01-26T06:08:39.580Z,-2.35
2017-01-26T06:09:39.543Z,-2.35
2017-01-26T06:10:39.112Z,-2.35
2017-01-26T06:11:39.483Z,-2.35
2017-01-26T06:12:39.481Z,-2.29
2017-01-26T06:13:39.430Z,-2.43
2017-01-26T06:14:39.397Z,-2.32
2017-01-26T06:15:39.664Z,-2.46
2017-01-26T06:16:38.937Z,-2.46
2017-01-26T06:17:39.314Z,-2.4
2017-01-26T06:18:39.277Z,-2.4
2017-01-26T06:19:38.852Z,-2.4
2017-01-26T06:20:39.210Z,-2.48
2017-01-26T06:21:39.178Z,-2.5
2017-01-26T06:22:38.756Z,-2.38
2017-01-26T06:23:38.724Z,-2.4
2017-01-26T06:24:38.695Z,-2.35
2017-01-26T06:25:39.065Z,-2.4
2017-01-26T06:26:39.035Z,-2.37
2017-01-26T06:27:38.606Z,-2.43
2017-01-26T06:28:39.025Z,-2.33
2017-01-26T06:29:39.252Z,-2.33
2017-01-26T06:30:38.915Z,-2.33
2017-01-26T06:31:38.487Z,-2.38
2017-01-26T06:32:38.860Z,-2.47
2017-01-26T06:33:38.827Z,-2.46
2017-01-26T06:34:38.791Z,-2.48
2017-01-26T06:35:38.773Z,-2.44
2017-01-26T06:36:38.755Z,-2.47
2017-01-26T06:37:38.319Z,-2.43
2017-01-26T06:38:38.668Z,-2.47
2017-01-26T06:39:38.246Z,-2.46
2017-01-26T06:40:38.612Z,-2.46
2017-01-26T06:41:37.785Z,-2.41
2017-01-26T06:42:38.558Z,-2.4
2017-01-26T06:43:38.525Z,-2.44
2017-01-26T06:44:38.094Z,-2.48
2017-01-26T06:45:38.463Z,-2.43
2017-01-26T06:46:38.041Z,-2.43
2017-01-26T06:47:38.403Z,-2.46
2017-01-26T06:48:38.374Z,-2.5
2017-01-26T06:49:38.343Z,-2.46
2017-01-26T06:50:38.317Z,-2.37
2017-01-26T06:52:37.854Z,-2.48
2017-01-26T06:53:38.231Z,-2.47
2017-01-26T06:54:38.196Z,-2.38
2017-01-26T06:55:37.768Z,-2.4
2017-01-26T06:56:38.132Z,-2.4
2017-01-26T06:57:38.111Z,-2.51
2017-01-26T06:58:38.125Z,-2.5
2017-01-26T06:59:38.042Z,-2.44
2017-01-26T07:00:38.006Z,-2.44
2017-01-26T07:01:37.602Z,-2.38
2017-01-26T07:02:37.554Z,-2.48
2017-01-26T07:03:37.921Z,-2.38
2017-01-26T07:04:37.905Z,-2.32
2017-01-26T07:05:37.468Z,-2.38
2017-01-26T07:06:37.435Z,-2.35
2017-01-26T07:07:37.806Z,-2.38
2017-01-26T07:08:37.794Z,-2.37
2017-01-26T07:09:37.741Z,-2.35
2017-01-26T07:10:37.711Z,-2.43
2017-01-26T07:11:37.686Z,-2.44
2017-01-26T07:12:37.650Z,-2.43
2017-01-26T07:13:37.619Z,-2.47
2017-01-26T07:14:37.590Z,-2.35
2017-01-26T07:15:37.558Z,-2.37
2017-01-26T07:16:37.531Z,-2.32
2017-01-26T07:17:37.507Z,-2.33
2017-01-26T07:18:37.467Z,-2.38
2017-01-26T07:19:37.433Z,-2.37
2017-01-26T07:20:37.409Z,-2.43
2017-01-26T07:21:37.379Z,-2.4
2017-01-26T07:22:37.379Z,-2.37
2017-01-26T07:23:37.319Z,-2.48
2017-01-26T07:24:37.291Z,-2.37
2017-01-26T07:25:37.310Z,-2.37
2017-01-26T07:26:36.427Z,-2.44
2017-01-26T07:27:37.201Z,-2.46
2017-01-26T07:28:37.164Z,-2.46
2017-01-26T07:29:37.135Z,-2.48
2017-01-26T07:30:37.108Z,-2.51
2017-01-26T07:31:36.675Z,-2.5
2017-01-26T07:32:37.040Z,-2.46
2017-01-26T07:33:37.018Z,-2.46
2017-01-26T07:34:36.988Z,-2.43
2017-01-26T07:35:36.950Z,-2.46
2017-01-26T07:36:36.991Z,-2.4
2017-01-26T07:37:36.895Z,-2.32
2017-01-26T07:38:36.872Z,-2.29
2017-01-26T07:39:36.440Z,-2.24
2017-01-26T07:40:36.410Z,-2.07
2017-01-26T07:41:35.981Z,-1.86
2017-01-26T07:42:36.794Z,-1.61
2017-01-26T07:43:36.734Z,-1.31
2017-01-26T07:44:36.294Z,-1.25
2017-01-26T07:45:36.669Z,-1.02
2017-01-26T07:46:36.631Z,-0.78
2017-01-26T07:47:36.601Z,-0.68
2017-01-26T07:48:36.169Z,-0.34
2017-01-26T07:49:36.570Z,-0.2
2017-01-26T07:50:36.111Z,-0.03
2017-01-26T07:51:36.124Z,0.23
2017-01-26T07:52:36.059Z,0.35
2017-01-26T07:53:36.426Z,0.63
2017-01-26T07:54:36.411Z,0.88
2017-01-26T07:55:36.372Z,1.02
2017-01-26T07:56:36.341Z,1.08
2017-01-26T07:57:36.317Z,1.21
2017-01-26T07:58:36.290Z,1.11
2017-01-26T07:59:36.285Z,0.98
2017-01-26T08:00:35.839Z,0.89
2017-01-26T08:01:36.261Z,0.88
2017-01-26T08:02:36.177Z,0.64
2017-01-26T08:03:36.156Z,0.62
2017-01-26T08:04:36.121Z,0.51
2017-01-26T08:05:36.096Z,0.44
2017-01-26T08:06:35.676Z,0.44
2017-01-26T08:07:36.047Z,0.68
2017-01-26T08:08:36.018Z,1
2017-01-26T08:09:35.983Z,1.34
2017-01-26T08:10:35.958Z,1.74
2017-01-26T08:11:35.934Z,2.14
2017-01-26T08:12:35.905Z,2.48
2017-01-26T08:13:35.876Z,2.76
2017-01-26T08:14:35.448Z,2.97
2017-01-26T08:15:35.886Z,3.28
2017-01-26T08:16:35.827Z,3.46
2017-01-26T08:17:35.773Z,3.72
2017-01-26T08:18:35.760Z,3.88
2017-01-26T08:19:35.722Z,4.24
2017-01-26T08:20:35.697Z,4.42
2017-01-26T08:21:35.677Z,4.39
2017-01-26T08:22:35.655Z,4.51
2017-01-26T08:23:35.628Z,4.59
2017-01-26T08:24:35.597Z,4.83
2017-01-26T08:25:35.571Z,4.88
2017-01-26T08:26:35.592Z,4.93
2017-01-26T08:27:35.526Z,4.99
2017-01-26T08:28:35.502Z,5.09
2017-01-26T08:29:35.510Z,5.27
2017-01-26T08:30:35.502Z,5.26
2017-01-26T08:31:35.429Z,5.32
2017-01-26T08:32:35.404Z,5.47
2017-01-26T08:33:35.379Z,5.62
2017-01-26T08:34:35.405Z,5.66
2017-01-26T08:35:35.338Z,5.65
2017-01-26T08:36:35.314Z,5.73
2017-01-26T08:37:35.282Z,5.88
2017-01-26T08:38:34.864Z,5.87
2017-01-26T08:39:35.244Z,5.85
2017-01-26T08:40:35.219Z,5.74
2017-01-26T08:41:35.192Z,5.59
2017-01-26T08:42:35.170Z,5.51
2017-01-26T08:43:35.201Z,5.35
2017-01-26T08:44:35.130Z,5.38
2017-01-26T08:45:35.104Z,5.51
2017-01-26T08:46:35.083Z,5.63
2017-01-26T08:47:35.056Z,5.65
2017-01-26T08:48:34.663Z,5.69
2017-01-26T08:49:34.211Z,5.74
2017-01-26T08:50:34.998Z,5.88
2017-01-26T08:51:34.977Z,5.65
2017-01-26T08:52:34.549Z,5.41
2017-01-26T08:53:34.911Z,5.3
2017-01-26T08:54:34.890Z,5.35
2017-01-26T08:55:34.873Z,5.24
2017-01-26T08:56:34.847Z,5.19
2017-01-26T08:57:34.424Z,5.09
2017-01-26T08:58:34.799Z,5.27
2017-01-26T08:59:34.782Z,5.32
2017-01-26T09:00:34.758Z,5.24
2017-01-26T09:01:34.733Z,5.11
2017-01-26T09:02:34.312Z,5.05
2017-01-26T09:03:34.679Z,5.19
2017-01-26T09:04:34.265Z,5.2
2017-01-26T09:05:34.644Z,4.68
2017-01-26T09:06:34.618Z,4.38
2017-01-26T09:07:34.604Z,4.1
2017-01-26T09:08:34.581Z,3.74
2017-01-26T09:09:34.554Z,3.39
2017-01-26T09:10:34.526Z,3.01
2017-01-26T09:11:34.503Z,2.69
2017-01-26T09:12:34.522Z,2.37
2017-01-26T09:13:34.455Z,2.12
2017-01-26T09:14:34.438Z,1.82
2017-01-26T09:15:34.406Z,1.68
2017-01-26T09:16:33.984Z,1.43
2017-01-26T09:17:33.989Z,1.2
2017-01-26T09:18:34.337Z,1.02
2017-01-26T09:19:34.304Z,0.99
2017-01-26T09:20:34.283Z,0.8
2017-01-26T09:21:34.271Z,0.8
2017-01-26T09:22:34.226Z,0.71
2017-01-26T09:23:33.818Z,0.63
2017-01-26T09:24:33.786Z,0.6
2017-01-26T09:25:34.156Z,0.57
2017-01-26T09:26:34.124Z,0.51
2017-01-26T09:27:34.116Z,0.51
2017-01-26T09:28:34.073Z,0.44
2017-01-26T09:29:34.047Z,0.37
2017-01-26T09:30:33.636Z,0.34
2017-01-26T09:31:33.994Z,0.33
2017-01-26T09:32:33.175Z,0.17
2017-01-26T09:33:33.549Z,0.17
2017-01-26T09:34:33.963Z,0.12
2017-01-26T09:35:33.891Z,0.19
2017-01-26T09:36:33.863Z,0.17
2017-01-26T09:37:33.839Z,0.25
2017-01-26T09:38:33.808Z,0.19
2017-01-26T09:39:33.781Z,0.28
2017-01-26T09:40:33.362Z,0.25
2017-01-26T09:41:33.738Z,0.2
2017-01-26T09:42:33.703Z,0.26
2017-01-26T09:43:33.680Z,0.22
2017-01-26T09:44:33.643Z,0.31
2017-01-26T09:45:33.221Z,0.34
2017-01-26T09:46:33.194Z,0.3
2017-01-26T09:47:33.168Z,0.3
2017-01-26T09:48:33.535Z,0.26
2017-01-26T09:49:33.505Z,0.33
2017-01-26T09:50:33.479Z,0.3
2017-01-26T09:51:33.051Z,0.33
2017-01-26T09:52:33.422Z,0.31
2017-01-26T09:53:33.005Z,0.34
2017-01-26T09:54:33.384Z,0.35
2017-01-26T09:55:33.341Z,0.33
2017-01-26T09:56:33.313Z,0.25
2017-01-26T09:57:33.292Z,0.3
2017-01-26T09:58:32.896Z,0.35
2017-01-26T09:59:33.230Z,0.35
2017-01-26T10:00:33.220Z,0.43
2017-01-26T10:01:32.777Z,0.38
2017-01-26T10:02:33.157Z,0.41
2017-01-26T10:03:33.124Z,0.33
2017-01-26T10:04:33.100Z,0.35
2017-01-26T10:05:33.101Z,0.38
2017-01-26T10:06:33.053Z,0.3
2017-01-26T10:07:32.618Z,0.38
2017-01-26T10:08:33.002Z,0.34
2017-01-26T10:09:33.265Z,0.38
2017-01-26T10:10:32.936Z,0.31
2017-01-26T10:11:32.513Z,0.34
2017-01-26T10:12:32.878Z,0.33
2017-01-26T10:13:32.457Z,0.4
2017-01-26T10:14:32.822Z,0.4
2017-01-26T10:15:32.404Z,0.43
2017-01-26T10:16:32.756Z,0.43
2017-01-26T10:17:32.745Z,0.43
2017-01-26T10:18:32.704Z,0.44
2017-01-26T10:19:32.285Z,0.41
2017-01-26T10:20:32.660Z,0.49
2017-01-26T10:21:32.624Z,0.43
2017-01-26T10:22:32.601Z,0.51
2017-01-26T10:23:32.575Z,0.57
2017-01-26T10:24:32.150Z,0.67
2017-01-26T10:25:32.114Z,0.68
2017-01-26T10:26:32.476Z,0.71
2017-01-26T10:27:32.463Z,0.74
2017-01-26T10:28:32.427Z,0.77
2017-01-26T10:29:32.006Z,0.72
2017-01-26T10:30:32.367Z,0.74
2017-01-26T10:31:32.351Z,0.77
2017-01-26T10:32:32.321Z,0.7
2017-01-26T10:33:32.603Z,0.71
2017-01-26T10:34:32.264Z,0.72
2017-01-26T10:35:32.238Z,0.75
2017-01-26T10:36:32.271Z,0.72
2017-01-26T10:37:31.805Z,0.78
2017-01-26T10:38:32.053Z,0.74
2017-01-26T10:39:31.728Z,0.75
2017-01-26T10:40:32.102Z,0.8
2017-01-26T10:41:32.379Z,0.72
2017-01-26T10:42:31.646Z,0.72
2017-01-26T10:43:31.670Z,0.71
2017-01-26T10:44:31.985Z,0.68
2017-01-26T10:45:31.961Z,0.68
2017-01-26T10:46:31.939Z,0.64
2017-01-26T10:47:32.111Z,0.68
2017-01-26T10:48:31.884Z,0.77
2017-01-26T10:49:31.457Z,0.75
2017-01-26T10:50:31.425Z,0.74
2017-01-26T10:51:31.793Z,0.81
2017-01-26T10:52:31.767Z,0.77
2017-01-26T10:53:31.344Z,0.77
2017-01-26T10:54:31.769Z,0.8
2017-01-26T10:55:31.708Z,0.78
2017-01-26T10:56:31.255Z,0.84
2017-01-26T10:57:31.250Z,0.75
2017-01-26T10:58:31.609Z,0.82
2017-01-26T10:59:31.177Z,0.82
2017-01-26T11:00:31.148Z,0.84
2017-01-26T11:01:31.523Z,0.84
2017-01-26T11:02:31.496Z,0.8
2017-01-26T11:03:31.463Z,0.81
2017-01-26T11:04:31.046Z,0.78
2017-01-26T11:05:31.954Z,0.84
2017-01-26T11:06:31.381Z,0.9
2017-01-26T11:07:31.355Z,0.92
2017-01-26T11:08:31.327Z,0.98
2017-01-26T11:09:31.294Z,0.96
2017-01-26T11:10:31.268Z,0.99
2017-01-26T11:11:31.252Z,0.98
2017-01-26T11:12:31.264Z,1.1
2017-01-26T11:13:31.204Z,1
2017-01-26T11:14:31.170Z,1.02
2017-01-26T11:15:31.436Z,1
2017-01-26T11:16:31.098Z,1.07
2017-01-26T11:17:31.078Z,1.06
2017-01-26T11:18:30.659Z,1.04
2017-01-26T11:19:31.029Z,1.18
2017-01-26T11:20:30.994Z,1.17
2017-01-26T11:21:30.580Z,1.17
2017-01-26T11:22:30.940Z,1.17
2017-01-26T11:23:30.912Z,1.17
2017-01-26T11:24:30.483Z,1.14
2017-01-26T11:25:30.856Z,1.18
2017-01-26T11:26:30.853Z,1.24
2017-01-26T11:27:30.406Z,1.21
2017-01-26T11:28:30.375Z,1.18
2017-01-26T11:29:30.755Z,1.17
2017-01-26T11:30:30.718Z,1.28
2017-01-26T11:31:30.695Z,1.29
2017-01-26T11:32:30.662Z,1.31
2017-01-26T11:33:30.243Z,1.31
2017-01-26T11:34:30.607Z,1.21
2017-01-26T11:35:30.184Z,1.2
2017-01-26T11:36:30.162Z,1.25
2017-01-26T11:37:30.528Z,1.25
2017-01-26T11:38:30.103Z,1.26
2017-01-26T11:39:30.474Z,1.25
2017-01-26T11:40:30.490Z,1.32
2017-01-26T11:41:30.021Z,1.32
2017-01-26T11:42:30.392Z,1.24
2017-01-26T11:43:29.619Z,1.24
2017-01-26T11:44:29.944Z,1.24
2017-01-26T11:45:30.306Z,1.38
2017-01-26T11:46:30.287Z,1.36
2017-01-26T11:47:30.249Z,1.36
2017-01-26T11:48:29.833Z,1.35
2017-01-26T11:49:29.800Z,1.36
2017-01-26T11:50:29.765Z,1.34
2017-01-26T11:51:30.169Z,1.29
2017-01-26T11:52:30.109Z,1.24
2017-01-26T11:53:29.291Z,1.31
2017-01-26T11:54:29.662Z,1.31
2017-01-26T11:55:30.330Z,1.35
2017-01-26T11:56:29.608Z,1.36
2017-01-26T11:57:29.982Z,1.34
2017-01-26T11:58:29.557Z,1.39
2017-01-26T11:59:29.914Z,1.34
2017-01-26T12:00:29.892Z,1.43
2017-01-26T12:01:29.869Z,1.44
2017-01-26T12:02:29.843Z,1.42
2017-01-26T12:03:29.867Z,1.36
2017-01-26T12:04:29.395Z,1.49
2017-01-26T12:05:29.761Z,1.44
2017-01-26T12:06:29.739Z,1.49
2017-01-26T12:07:29.708Z,1.47
2017-01-26T12:08:29.681Z,1.64
2017-01-26T12:09:29.650Z,1.52
2017-01-26T12:10:29.628Z,1.53
2017-01-26T12:11:32.428Z,1.56
2017-01-26T12:12:29.566Z,1.53
2017-01-26T12:13:29.544Z,1.6
2017-01-26T12:14:29.516Z,1.52
2017-01-26T12:15:29.489Z,1.53
2017-01-26T12:16:29.763Z,1.56
2017-01-26T12:17:29.445Z,1.52
2017-01-26T12:18:29.403Z,1.5
2017-01-26T12:19:29.375Z,1.52
2017-01-26T12:20:28.959Z,1.49
2017-01-26T12:21:28.929Z,1.57
2017-01-26T12:22:29.293Z,1.54
2017-01-26T12:23:29.263Z,1.57
2017-01-26T12:24:29.245Z,1.46
2017-01-26T12:25:29.220Z,1.46
2017-01-26T12:26:29.186Z,1.52
2017-01-26T12:27:29.161Z,1.53
2017-01-26T12:28:29.128Z,1.5
2017-01-26T12:29:29.105Z,1.54
2017-01-26T12:30:29.074Z,1.54
2017-01-26T12:31:29.044Z,1.57
2017-01-26T12:32:29.017Z,1.52
2017-01-26T12:33:28.605Z,1.57
2017-01-26T12:34:28.568Z,1.61
2017-01-26T12:35:28.588Z,1.47
2017-01-26T12:36:28.906Z,1.49
2017-01-26T12:37:28.885Z,1.52
2017-01-26T12:38:28.858Z,1.54
2017-01-26T12:39:28.823Z,1.5
2017-01-26T12:40:28.406Z,1.49
2017-01-26T12:41:28.780Z,1.52
2017-01-26T12:42:28.348Z,1.56
2017-01-26T12:43:28.715Z,1.49
2017-01-26T12:44:28.691Z,1.57
2017-01-26T12:45:28.659Z,1.56
2017-01-26T12:46:28.651Z,1.56
2017-01-26T12:47:28.216Z,1.5
2017-01-26T12:48:27.783Z,1.61
2017-01-26T12:49:27.760Z,1.65
2017-01-26T12:50:28.584Z,1.61
2017-01-26T12:51:28.096Z,1.61
2017-01-26T12:52:28.472Z,1.57
2017-01-26T12:53:28.452Z,1.56
2017-01-26T12:54:28.022Z,1.57
2017-01-26T12:55:27.983Z,1.63
2017-01-26T12:56:27.965Z,1.61
2017-01-26T12:57:28.329Z,1.61
2017-01-26T12:58:28.608Z,1.67
2017-01-26T12:59:28.282Z,1.6
2017-01-26T13:00:27.848Z,1.57
2017-01-26T13:01:28.221Z,1.68
2017-01-26T13:02:28.193Z,1.72
2017-01-26T13:03:27.765Z,1.77
2017-01-26T13:04:27.740Z,1.72
2017-01-26T13:05:27.708Z,1.64
2017-01-26T13:06:28.085Z,1.67